Terminal Aerodrome Forecast
Issued by NWS

Current Version | Previous Version | Text Only | Print | Product List | Glossary Off
Versions: 1 2 3 4 5 6 7 8 9 10 11 12 13 14 15 16 17 18 19 20 21

363
FTUS41 KILN 101311 AAA
TAFLUK
TAF AMD
KLUK 101311Z 1013/1112 26012G18KT 6SM -SHSN OVC040
      TEMPO 1013/1016 4SM -SHSN OVC028
     FM101700 27014G20KT P6SM -SHSN OVC040
     FM110000 27007KT P6SM BKN040
     FM111000 28005KT P6SM SCT040=

USA.gov is the U.S. government's official web portal to all federal, state and local government web resources and services.